Alexandria, South Dakota
Current Conditions -  °F | °C
As of 11:53 PM on Sunday 19 Oct 2014 (Local Time) from KMHE Reporting Station
Clear Clear  
Wind Chill:   Ceiling: Unl
Heat Index:   Visibility: 10mi
Dew Point:   Wind: 9mph
Humidity: 68%   Direction: 310°NW
Pressure: 30"   Gusts: NA
Location:  43.65°N, 97.78°W
Report Text: KMHE 200453Z AUTO 31008KT 10SM CLR 09/03 A3000 RMK AO2 SLP160 T00890033 $
Loading
Personal Weather Stations






























Interactive Weather Map
Tropical Storm Tracking
New forecast layout! Learn more

10-Day Weather Forecast

Advertisements
Track Severe Weather on mobile